Time;durP1;ratioP1;P1;durP2;ratioP2;P2;SDS_P1;SDS_P2;PMS_P1;PMS_P2;Temp;Humidity;BMP_temperature;BMP_pressure;BME280_temperature;BME280_humidity;BME280_pressure;Samples;Min_cycle;Max_cycle;Signal;HPM_P1;HPM_P2
2023/04/27 00:00:28;;;;;;;3.53;3.53;;;;;;;;;;4193490;28;20044;-79
2023/04/27 00:02:48;;;;;;;3.55;3.42;;;;;;;;;;4190376;28;20406;-78
2023/04/27 00:05:10;;;;;;;3.80;3.80;;;;;;;;;;4194212;28;20075;-79
2023/04/27 00:07:31;;;;;;;3.08;2.92;;;;;;;;;;4197783;28;20078;-78
2023/04/27 00:09:52;;;;;;;3.88;3.78;;;;;;;;;;4190633;28;20100;-79
2023/04/27 00:12:12;;;;;;;4.32;3.95;;;;;;;;;;4194781;28;20040;-79
2023/04/27 00:14:32;;;;;;;3.80;3.70;;;;;;;;;;4199933;28;20236;-79
2023/04/27 00:16:52;;;;;;;3.90;3.75;;;;;;;;;;4194361;28;20550;-78
2023/04/27 00:19:14;;;;;;;3.63;3.35;;;;;;;;;;4190420;28;20086;-78
2023/04/27 00:21:34;;;;;;;4.68;4.38;;;;;;;;;;4198129;28;20408;-79
2023/04/27 00:23:54;;;;;;;4.00;3.90;;;;;;;;;;4193090;28;20051;-79
2023/04/27 00:26:14;;;;;;;3.67;3.67;;;;;;;;;;4187917;28;20109;-79
2023/04/27 00:28:34;;;;;;;4.05;4.00;;;;;;;;;;4191476;28;20086;-79
2023/04/27 00:30:55;;;;;;;3.97;3.88;;;;;;;;;;4197057;28;20366;-79
2023/04/27 00:33:16;;;;;;;4.68;4.57;;;;;;;;;;4189257;28;20052;-78
2023/04/27 00:35:36;;;;;;;3.53;3.42;;;;;;;;;;4183739;28;20055;-78
2023/04/27 00:37:57;;;;;;;4.80;4.57;;;;;;;;;;4187399;28;20072;-79
2023/04/27 00:40:17;;;;;;;3.90;3.70;;;;;;;;;;4192829;28;20310;-78
2023/04/27 00:42:37;;;;;;;4.00;3.95;;;;;;;;;;4187856;28;20083;-78
2023/04/27 00:44:57;;;;;;;3.70;3.70;;;;;;;;;;4183906;28;20080;-79
2023/04/27 00:47:18;;;;;;;3.97;3.97;;;;;;;;;;4189413;28;20056;-79
2023/04/27 00:49:39;;;;;;;3.38;3.38;;;;;;;;;;4190542;28;20044;-78
2023/04/27 00:51:59;;;;;;;3.40;3.40;;;;;;;;;;4185774;28;20084;-78
2023/04/27 00:54:20;;;;;;;3.92;3.90;;;;;;;;;;4185682;28;20375;-79
2023/04/27 00:56:41;;;;;;;4.13;4.03;;;;;;;;;;4189235;28;20240;-79
2023/04/27 00:59:01;;;;;;;4.00;3.92;;;;;;;;;;4187668;28;20087;-79
2023/04/27 01:01:22;;;;;;;3.75;3.72;;;;;;;;;;4186668;28;20048;-87
2023/04/27 01:03:40;;;;;;;4.22;4.13;;;;;;;;;;4169054;28;20029;-57
2023/04/27 01:06:00;;;;;;;4.32;4.32;;;;;;;;;;4171846;28;20064;-57
2023/04/27 01:08:21;;;;;;;4.88;4.78;;;;;;;;;;4171986;28;20044;-58
2023/04/27 01:10:41;;;;;;;4.35;4.05;;;;;;;;;;4171776;28;20092;-58
2023/04/27 01:13:01;;;;;;;4.57;4.47;;;;;;;;;;4172600;28;20091;-57
2023/04/27 01:15:21;;;;;;;4.63;4.43;;;;;;;;;;4172901;28;20240;-57
2023/04/27 01:17:42;;;;;;;4.60;4.60;;;;;;;;;;4171499;28;20052;-57
2023/04/27 01:20:05;;;;;;;4.70;4.60;;;;;;;;;;4171676;28;20140;-57
2023/04/27 01:22:25;;;;;;;5.03;4.93;;;;;;;;;;4172610;28;20144;-57
2023/04/27 01:24:46;;;;;;;5.03;4.93;;;;;;;;;;4171847;28;20248;-58
2023/04/27 01:27:06;;;;;;;5.28;5.18;;;;;;;;;;4171861;28;20395;-58
2023/04/27 01:29:27;;;;;;;4.35;4.25;;;;;;;;;;4171646;28;20068;-57
2023/04/27 01:31:47;;;;;;;4.40;4.40;;;;;;;;;;4172448;28;20056;-57
2023/04/27 01:34:07;;;;;;;4.35;4.25;;;;;;;;;;4171455;28;20076;-57
2023/04/27 01:36:28;;;;;;;5.07;4.97;;;;;;;;;;4171368;28;20087;-57
2023/04/27 01:38:48;;;;;;;3.38;3.38;;;;;;;;;;4172460;28;20105;-58
2023/04/27 01:41:08;;;;;;;4.45;4.40;;;;;;;;;;4171513;28;20378;-58
2023/04/27 01:43:30;;;;;;;4.47;4.18;;;;;;;;;;4170507;28;20053;-58
2023/04/27 01:45:50;;;;;;;5.30;5.10;;;;;;;;;;4171656;28;20366;-58
2023/04/27 01:48:10;;;;;;;4.45;4.35;;;;;;;;;;4171847;28;20084;-58
2023/04/27 01:50:30;;;;;;;5.22;4.97;;;;;;;;;;4171427;28;20079;-57
2023/04/27 01:52:51;;;;;;;3.95;3.85;;;;;;;;;;4171612;28;20084;-57
2023/04/27 01:55:11;;;;;;;4.53;4.43;;;;;;;;;;4171193;28;20363;-57
2023/04/27 01:57:31;;;;;;;4.60;4.50;;;;;;;;;;4171964;28;20232;-57
2023/04/27 01:59:51;;;;;;;5.07;4.90;;;;;;;;;;4171617;28;20056;-57
2023/04/27 02:02:11;;;;;;;4.55;4.45;;;;;;;;;;4170448;28;20363;-57
2023/04/27 02:04:32;;;;;;;5.25;5.15;;;;;;;;;;4172077;28;20113;-58
2023/04/27 02:06:52;;;;;;;4.32;4.28;;;;;;;;;;4171754;28;20121;-57
2023/04/27 02:09:13;;;;;;;3.45;3.45;;;;;;;;;;4172015;28;20083;-57
2023/04/27 02:11:34;;;;;;;5.10;5.00;;;;;;;;;;4172275;28;20107;-58
2023/04/27 02:13:54;;;;;;;6.97;6.78;;;;;;;;;;4172133;28;20092;-57
2023/04/27 02:16:14;;;;;;;6.47;6.20;;;;;;;;;;4171353;28;20155;-57
2023/04/27 02:18:35;;;;;;;6.35;6.10;;;;;;;;;;4171948;28;20048;-57
2023/04/27 02:20:55;;;;;;;8.25;6.32;;;;;;;;;;4171588;28;20060;-57
2023/04/27 02:23:15;;;;;;;6.90;6.72;;;;;;;;;;4172253;28;20057;-58
2023/04/27 02:25:37;;;;;;;4.50;4.30;;;;;;;;;;4171137;28;20076;-57
2023/04/27 02:27:57;;;;;;;5.18;5.07;;;;;;;;;;4171113;28;20103;-57
2023/04/27 02:30:17;;;;;;;5.57;5.47;;;;;;;;;;4172281;28;20052;-57
2023/04/27 02:32:38;;;;;;;5.95;5.85;;;;;;;;;;4171952;28;20144;-57
2023/04/27 02:34:59;;;;;;;5.90;5.22;;;;;;;;;;4170930;28;20063;-57
2023/04/27 02:37:19;;;;;;;4.38;4.28;;;;;;;;;;4172309;28;20048;-57
2023/04/27 02:39:40;;;;;;;3.92;3.92;;;;;;;;;;4171173;28;20044;-57
2023/04/27 02:42:02;;;;;;;4.00;4.00;;;;;;;;;;4172197;28;20048;-57
2023/04/27 02:44:22;;;;;;;5.28;5.22;;;;;;;;;;4172196;28;20068;-58
2023/04/27 02:46:42;;;;;;;4.25;4.25;;;;;;;;;;4171974;28;20228;-57
2023/04/27 02:49:02;;;;;;;4.55;4.55;;;;;;;;;;4170900;28;20045;-57
2023/04/27 02:51:22;;;;;;;4.63;4.53;;;;;;;;;;4171764;28;20394;-57
2023/04/27 02:53:43;;;;;;;3.40;3.40;;;;;;;;;;4170552;28;20052;-58
2023/04/27 02:56:03;;;;;;;4.35;4.32;;;;;;;;;;4171336;28;20223;-57
2023/04/27 02:58:23;;;;;;;5.70;5.30;;;;;;;;;;4171963;28;20415;-57
2023/04/27 03:00:44;;;;;;;5.22;4.95;;;;;;;;;;4170845;28;20128;-58
2023/04/27 03:03:05;;;;;;;4.90;4.68;;;;;;;;;;4171990;28;20321;-57
2023/04/27 03:05:27;;;;;;;5.28;4.95;;;6.00;99.90;;;;;;4170876;28;20451;-57
2023/04/27 03:07:46;;;;;;;4.97;4.78;;;4.80;99.90;;;;;;4171871;28;20061;-57
2023/04/27 03:10:06;;;;;;;4.18;3.92;;;4.70;99.90;;;;;;4170425;28;20331;-57
2023/04/27 03:12:26;;;;;;;5.60;5.40;;;4.70;99.90;;;;;;4171827;28;20113;-57
2023/04/27 03:14:46;;;;;;;5.28;5.07;;;4.70;99.90;;;;;;4171723;28;20220;-58
2023/04/27 03:17:05;;;;;;;5.07;5.07;;;5.00;99.90;;;;;;4171507;28;20083;-57
2023/04/27 03:19:25;;;;;;;4.43;4.28;;;5.10;99.90;;;;;;4171677;28;20056;-57
2023/04/27 03:25:33;;;;;;;3.65;3.45;;;5.00;99.90;;;;;;4171680;28;20080;-57
2023/04/27 03:27:53;;;;;;;5.95;5.85;;;4.80;99.90;;;;;;4171627;28;20096;-57
2023/04/27 03:30:13;;;;;;;5.47;5.20;;;4.70;99.90;;;;;;4170818;28;20049;-57
2023/04/27 03:32:33;;;;;;;5.70;5.38;;;4.60;99.90;;;;;;4171963;28;20052;-58
2023/04/27 03:34:53;;;;;;;5.50;5.20;;;4.50;99.90;;;;;;4174481;28;20048;-57
2023/04/27 03:37:13;;;;;;;4.90;4.82;;;4.50;99.90;;;;;;4173937;28;20117;-57
2023/04/27 03:39:32;;;;;;;4.63;4.63;;;4.50;99.90;;;;;;4172682;28;20048;-57
2023/04/27 03:41:52;;;;;;;5.25;5.07;;;4.50;99.90;;;;;;4174154;28;20076;-57
2023/04/27 03:44:12;;;;;;;5.45;5.25;;;4.40;99.90;;;;;;4174073;28;20048;-57
2023/04/27 03:46:32;;;;;;;5.55;5.25;;;4.40;99.90;;;;;;4172982;28;20096;-57
2023/04/27 03:48:52;;;;;;;4.55;4.45;;;4.30;99.90;;;;;;4174347;28;20087;-57
2023/04/27 03:51:12;;;;;;;5.43;5.20;;;4.30;99.90;;;;;;4173019;28;20105;-57
2023/04/27 03:53:31;;;;;;;5.70;5.50;;;4.30;99.90;;;;;;4174254;28;20088;-57
2023/04/27 03:55:51;;;;;;;6.07;5.95;;;4.30;99.90;;;;;;4174090;28;20048;-57
2023/04/27 03:58:12;;;;;;;5.10;4.70;;;4.20;99.90;;;;;;4173937;28;20524;-57
2023/04/27 04:00:33;;;;;;;5.93;5.82;;;4.30;99.90;;;;;;4173804;28;20045;-58
2023/04/27 04:02:52;;;;;;;6.05;5.72;;;4.30;99.90;;;;;;4174150;28;20048;-57
2023/04/27 04:05:15;;;;;;;5.85;5.72;;;4.40;99.90;;;;;;4173746;28;20049;-57
2023/04/27 04:07:36;;;;;;;4.93;4.85;;;4.30;99.90;;;;;;4174000;28;20374;-57
2023/04/27 04:09:56;;;;;;;5.00;4.90;;;4.30;99.90;;;;;;4173781;28;20370;-57
2023/04/27 04:12:15;;;;;;;5.50;5.40;;;4.30;99.90;;;;;;4173650;28;20084;-57
2023/04/27 04:14:35;;;;;;;5.32;5.32;;;4.00;99.90;;;;;;4173886;28;20374;-58
2023/04/27 04:16:55;;;;;;;5.22;5.13;;;4.00;99.90;;;;;;4173844;28;20048;-57
2023/04/27 04:19:14;;;;;;;5.88;5.78;;;4.10;99.90;;;;;;4173250;28;20055;-57
2023/04/27 04:21:35;;;;;;;6.43;6.22;;;4.10;99.90;;;;;;4173102;28;20287;-58
2023/04/27 04:23:55;;;;;;;6.00;5.55;;;4.00;99.90;;;;;;4173247;28;20071;-58
2023/04/27 04:26:15;;;;;;;5.78;5.57;;;4.10;99.90;;;;;;4173737;28;20052;-57
2023/04/27 04:28:36;;;;;;;5.53;5.43;;;4.10;99.90;;;;;;4173547;28;20491;-57
2023/04/27 04:30:56;;;;;;;4.88;4.78;;;4.20;99.90;;;;;;4173716;28;20138;-57
2023/04/27 04:33:16;;;;;;;6.63;6.40;;;4.10;99.90;;;;;;4173517;28;20057;-57
2023/04/27 04:35:40;;;;;;;6.03;5.65;;;4.00;99.90;;;;;;4173750;28;20060;-57
2023/04/27 04:38:00;;;;;;;5.50;5.30;;;4.00;99.90;;;;;;4173030;28;20462;-57
2023/04/27 04:40:20;;;;;;;5.63;5.38;;;3.90;99.90;;;;;;4173494;28;20072;-57
2023/04/27 04:42:40;;;;;;;4.70;4.68;;;4.00;99.90;;;;;;4173467;28;20396;-58
2023/04/27 04:45:00;;;;;;;6.22;5.88;;;4.20;99.90;;;;;;4173561;28;20061;-57
2023/04/27 04:47:20;;;;;;;5.30;5.10;;;4.20;99.90;;;;;;4173211;28;20096;-57
2023/04/27 04:49:40;;;;;;;5.03;4.80;;;4.20;99.90;;;;;;4172991;28;20083;-57
2023/04/27 04:52:00;;;;;;;6.35;5.78;;;4.20;99.90;;;;;;4172323;28;20075;-57
2023/04/27 04:54:20;;;;;;;5.40;5.30;;;4.30;99.90;;;;;;4173451;28;20240;-57
2023/04/27 04:56:40;;;;;;;6.22;6.07;;;4.20;99.90;;;;;;4171966;28;20049;-57
2023/04/27 04:59:00;;;;;;;6.00;5.70;;;4.20;99.90;;;;;;4173379;28;20048;-57
2023/04/27 05:01:20;;;;;;;6.15;5.85;;;4.20;99.90;;;;;;4173401;28;20390;-57
2023/04/27 05:03:40;;;;;;;5.55;5.45;;;4.20;99.90;;;;;;4172993;28;20049;-57
2023/04/27 05:06:00;;;;;;;5.57;5.47;;;4.30;99.90;;;;;;4173265;28;20053;-58
2023/04/27 05:08:20;;;;;;;5.10;5.00;;;4.30;99.90;;;;;;4172998;28;20048;-57
2023/04/27 05:10:39;;;;;;;4.38;4.28;;;4.30;99.90;;;;;;4172198;28;20060;-57
2023/04/27 05:12:59;;;;;;;6.65;6.45;;;4.30;99.90;;;;;;4171695;28;20076;-57
2023/04/27 05:15:18;;;;;;;5.93;5.72;;;4.40;99.90;;;;;;4172796;28;20048;-58
2023/04/27 05:17:38;;;;;;;5.78;5.32;;;4.30;99.90;;;;;;4171447;28;20087;-57
2023/04/27 05:19:58;;;;;;;6.57;6.13;;;4.40;99.90;;;;;;4171202;28;20451;-56
2023/04/27 05:22:18;;;;;;;6.43;6.32;;;4.40;99.90;;;;;;4172785;28;20402;-56
2023/04/27 05:24:38;;;;;;;5.68;5.57;;;4.30;99.90;;;;;;4171458;28;20044;-57
2023/04/27 05:26:58;;;;;;;5.25;4.95;;;4.40;99.90;;;;;;4170280;28;20135;-56
2023/04/27 05:29:21;;;;;;;;;;;4.60;99.90;;;;;;4173361;28;20148;-57
2023/04/27 05:31:40;;;;;;;6.70;6.40;;;4.80;99.90;;;;;;4172145;28;19923;-57
2023/04/27 05:34:00;;;;;;;5.60;5.45;;;4.80;99.90;;;;;;4170880;28;20064;-57
2023/04/27 05:36:20;;;;;;;5.00;4.78;;;4.80;99.90;;;;;;4172853;28;20056;-56
2023/04/27 05:38:40;;;;;;;5.90;5.60;;;5.00;99.90;;;;;;4172701;28;20371;-56
2023/04/27 05:41:00;;;;;;;5.85;5.55;;;5.10;99.90;;;;;;4171448;28;20160;-57
2023/04/27 05:43:20;;;;;;;4.90;4.50;;;5.00;99.90;;;;;;4172858;28;20275;-56
2023/04/27 05:45:40;;;;;;;6.18;6.07;;;5.10;99.90;;;;;;4172801;28;20068;-56
2023/04/27 05:48:00;;;;;;;5.60;5.43;;;5.10;99.90;;;;;;4172537;28;20088;-56
2023/04/27 05:50:21;;;;;;;5.75;5.25;;;5.30;99.90;;;;;;4172214;28;20053;-56
2023/04/27 05:52:41;;;;;;;5.65;5.55;;;5.40;99.90;;;;;;4172052;28;20272;-56
2023/04/27 05:55:00;;;;;;;5.82;5.63;;;5.40;99.90;;;;;;4171770;28;20059;-57
2023/04/27 05:57:21;;;;;;;6.85;6.25;;;5.40;99.90;;;;;;4172539;28;20156;-57
2023/04/27 05:59:41;;;;;;;4.93;4.82;;;5.40;99.90;;;;;;4172516;28;20243;-57
2023/04/27 06:02:01;;;;;;;5.50;5.32;;;5.70;99.90;;;;;;4172615;28;20072;-57
2023/04/27 06:04:21;;;;;;;5.72;5.53;;;5.90;99.90;;;;;;4172382;28;20095;-57
2023/04/27 06:06:41;;;;;;;4.85;4.75;;;5.90;99.90;;;;;;4172224;28;20083;-57
2023/04/27 06:09:02;;;;;;;5.30;5.20;;;6.00;99.90;;;;;;4172125;28;20057;-57
2023/04/27 06:11:22;;;;;;;5.05;4.95;;;6.10;99.90;;;;;;4172513;28;20080;-57
2023/04/27 06:13:42;;;;;;;4.68;4.60;;;6.10;99.90;;;;;;4172442;28;20068;-56
2023/04/27 06:16:01;;;;;;;4.85;4.53;;;6.30;99.90;;;;;;4171724;28;20049;-56
2023/04/27 06:18:22;;;;;;;4.65;4.55;;;6.40;99.90;;;;;;4172208;28;20079;-56
2023/04/27 06:20:41;;;;;;;5.00;4.90;;;6.60;99.90;;;;;;4171756;28;20052;-57
2023/04/27 06:23:01;;;;;;;4.65;4.25;;;6.70;99.90;;;;;;4172502;28;20044;-57
2023/04/27 06:25:21;;;;;;;3.95;3.92;;;6.90;99.90;;;;;;4172445;28;20106;-57
2023/04/27 06:27:43;;;;;;;4.50;4.40;;;7.10;99.90;;;;;;4171649;28;20113;-57
2023/04/27 06:30:03;;;;;;;5.47;5.28;;;7.30;99.90;;;;;;4171364;28;20048;-57
2023/04/27 06:32:23;;;;;;;3.83;3.72;;;7.40;99.90;;;;;;4171233;28;20048;-57
2023/04/27 06:34:43;;;;;;;4.13;3.75;;;7.60;99.90;;;;;;4172544;28;20052;-56
2023/04/27 06:37:03;;;;;;;4.20;3.83;;;8.00;99.90;;;;;;4172158;28;20068;-57
2023/04/27 06:39:23;;;;;;;3.05;2.95;;;8.00;99.90;;;;;;4171704;28;20124;-57
2023/04/27 06:41:43;;;;;;;3.92;3.83;;;8.20;99.90;;;;;;4171438;28;20083;-57
2023/04/27 06:44:03;;;;;;;3.00;2.88;;;8.40;99.90;;;;;;4171205;28;20048;-57
2023/04/27 06:46:23;;;;;;;2.85;2.75;;;8.50;99.90;;;;;;4171432;28;20048;-57
2023/04/27 06:48:42;;;;;;;3.08;2.92;;;8.70;99.90;;;;;;4172081;28;20048;-57
2023/04/27 06:51:02;;;;;;;3.05;2.85;;;8.80;99.90;;;;;;4172120;28;20067;-57
2023/04/27 06:53:22;;;;;;;2.65;2.45;;;9.00;99.90;;;;;;4171826;28;20060;-57
2023/04/27 06:55:42;;;;;;;2.88;2.88;;;9.10;99.90;;;;;;4172064;28;20087;-57
2023/04/27 06:58:05;;;;;;;2.65;2.55;;;9.30;99.90;;;;;;4170269;28;20086;-56
2023/04/27 07:00:26;;;;;;;3.05;2.92;;;9.40;99.90;;;;;;4171050;28;20252;-57
2023/04/27 07:02:45;;;;;;;2.67;2.58;;;9.60;99.90;;;;;;4171564;28;20056;-57
2023/04/27 07:05:06;;;;;;;2.30;2.30;;;9.90;99.90;;;;;;4170449;28;20067;-57
2023/04/27 07:07:26;;;;;;;1.70;1.70;;;10.00;99.90;;;;;;4173053;28;20083;-57
2023/04/27 07:09:45;;;;;;;2.15;2.15;;;10.10;99.90;;;;;;4174253;28;20140;-57
2023/04/27 07:12:05;;;;;;;2.78;1.83;;;10.40;99.90;;;;;;4173802;28;20045;-57
2023/04/27 07:14:25;;;;;;;2.40;2.30;;;10.50;99.90;;;;;;4172597;28;20083;-57
2023/04/27 07:16:46;;;;;;;1.52;1.42;;;10.60;99.90;;;;;;4174210;28;20060;-58
2023/04/27 07:19:06;;;;;;;1.88;1.40;;;10.80;99.90;;;;;;4174343;28;20109;-57
2023/04/27 07:21:27;;;;;;;1.92;1.85;;;11.00;99.90;;;;;;4173052;28;20108;-57
2023/04/27 07:23:47;;;;;;;1.80;1.70;;;11.00;99.90;;;;;;4174305;28;20096;-57
2023/04/27 07:26:07;;;;;;;1.77;1.50;;;11.20;99.90;;;;;;4174375;28;20052;-57
2023/04/27 07:28:30;;;;;;;2.05;1.40;;;11.40;99.90;;;;;;4174149;28;20144;-57
2023/04/27 07:30:50;;;;;;;1.30;1.30;;;11.60;99.90;;;;;;4174468;28;20091;-58
2023/04/27 07:33:10;;;;;;;1.60;1.60;;;11.60;99.90;;;;;;4174268;28;20045;-57
2023/04/27 07:35:31;;;;;;;1.35;1.35;;;11.70;99.90;;;;;;4174431;28;20053;-58
2023/04/27 07:37:51;;;;;;;1.20;1.20;;;11.90;99.90;;;;;;4173887;28;20053;-58
2023/04/27 07:40:15;;;;;;;1.55;1.30;;;12.00;99.90;;;;;;4174366;28;20088;-57
2023/04/27 07:42:38;;;;;;;1.42;1.42;;;12.20;99.90;;;;;;4173866;28;20562;-57
2023/04/27 07:44:58;;;;;;;1.52;1.42;;;12.60;99.90;;;;;;4174112;28;20051;-57
2023/04/27 07:47:18;;;;;;;1.30;1.30;;;12.80;99.90;;;;;;4174316;28;20080;-58
2023/04/27 07:49:39;;;;;;;1.20;1.20;;;12.90;99.90;;;;;;4173699;28;20060;-57
2023/04/27 07:51:59;;;;;;;1.50;1.30;;;13.10;99.90;;;;;;4173369;28;20087;-58
2023/04/27 07:54:18;;;;;;;4.55;1.45;;;13.30;99.90;;;;;;4174224;28;20106;-57
2023/04/27 07:56:41;;;;;;;4.35;1.15;;;13.50;99.90;;;;;;4173467;28;20103;-58
2023/04/27 07:59:01;;;;;;;2.95;1.20;;;13.80;99.90;;;;;;4174204;28;20048;-58
2023/04/27 08:01:21;;;;;;;1.77;1.20;;;13.90;99.90;;;;;;4173052;28;20044;-57
2023/04/27 08:03:41;;;;;;;1.20;1.20;;;14.10;99.50;;;;;;4159428;28;20052;-58
2023/04/27 08:06:03;;;;;;;1.15;1.15;;;14.20;99.10;;;;;;4173155;28;20075;-57
2023/04/27 08:08:23;;;;;;;1.55;1.45;;;14.20;99.90;;;;;;4174103;28;20040;-57
2023/04/27 08:10:43;;;;;;;1.33;1.23;;;14.40;99.70;;;;;;4174045;28;20366;-58
2023/04/27 08:13:03;;;;;;;1.95;1.20;;;14.70;99.70;;;;;;4173910;28;20052;-58
2023/04/27 08:15:23;;;;;;;1.10;1.10;;;15.10;99.90;;;;;;4173876;28;20102;-59
2023/04/27 08:17:44;;;;;;;1.15;1.10;;;15.40;99.70;;;;;;4172875;28;20048;-58
2023/04/27 08:20:05;;;;;;;1.52;1.30;;;15.70;98.60;;;;;;4171987;28;20092;-57
2023/04/27 08:22:25;;;;;;;2.15;1.20;;;15.60;98.20;;;;;;4173904;28;20233;-58
2023/04/27 08:24:45;;;;;;;2.33;1.30;;;15.70;97.50;;;;;;4174112;28;20048;-58
2023/04/27 08:27:06;;;;;;;2.25;1.00;;;16.10;99.40;;;;;;4172407;28;20048;-58
2023/04/27 08:29:26;;;;;;;1.83;1.20;;;16.50;97.60;;;;;;4171199;28;20192;-58
2023/04/27 08:31:48;;;;;;;1.85;1.00;;;16.90;97.40;;;;;;4173408;28;20056;-58
2023/04/27 08:34:08;;;;;;;1.20;1.10;;;17.20;97.30;;;;;;4173256;28;20056;-58
2023/04/27 08:36:28;;;;;;;2.15;0.88;;;17.10;95.80;;;;;;4171867;28;20244;-59
2023/04/27 08:38:48;;;;;;;1.10;1.00;;;17.40;94.70;;;;;;4170737;28;20057;-58
2023/04/27 08:41:08;;;;;;;2.65;1.00;;;17.20;95.00;;;;;;4173517;28;20056;-58
2023/04/27 08:43:41;;;;;;;2.97;1.10;;;17.40;96.80;;;;;;4173207;28;20048;-58
2023/04/27 08:46:01;;;;;;;1.10;1.10;;;17.40;95.00;;;;;;4173517;28;20113;-59
2023/04/27 08:48:21;;;;;;;2.20;1.85;;;17.60;93.30;;;;;;4157316;28;20048;-58
2023/04/27 08:50:43;;;;;;;1.00;1.00;;;17.60;92.70;;;;;;4173490;28;20056;-58
2023/04/27 08:53:03;;;;;;;9.20;0.93;;;18.00;92.80;;;;;;4172791;28;20087;-58
2023/04/27 08:55:23;;;;;;;4.82;1.02;;;17.80;91.80;;;;;;4172326;28;20240;-58
2023/04/27 08:57:53;;;;;;;1.25;0.98;;;18.00;90.80;;;;;;4173528;28;20087;-58
2023/04/27 09:00:14;;;;;;;0.90;0.90;;;18.30;91.50;;;;;;4173100;28;20068;-58
2023/04/27 09:02:33;;;;;;;1.02;1.00;;;18.50;92.00;;;;;;4173365;28;20076;-59
2023/04/27 09:04:53;;;;;;;1.00;1.00;;;18.60;90.80;;;;;;4172933;28;20079;-59
2023/04/27 09:07:16;;;;;;;1.00;1.00;;;18.50;88.30;;;;;;4172815;28;20249;-59
2023/04/27 09:09:36;;;;;;;;;;;18.40;90.80;;;;;;4173638;28;20048;-59
2023/04/27 09:11:56;;;;;;;1.65;1.55;;;18.70;89.00;;;;;;4173190;28;19960;-58
2023/04/27 09:14:17;;;;;;;0.95;0.95;;;18.40;86.80;;;;;;4173019;28;20053;-59
2023/04/27 09:16:37;;;;;;;1.15;1.15;;;18.40;84.40;;;;;;4172579;28;20245;-59
2023/04/27 09:18:57;;;;;;;1.52;1.10;;;18.70;85.70;;;;;;4172494;28;20040;-59
2023/04/27 09:21:22;;;;;;;0.90;0.90;;;18.90;83.40;;;;;;4173105;28;20417;-59
2023/04/27 09:23:45;;;;;;;1.33;0.82;;;19.40;85.60;;;;;;4173281;28;20076;-59
2023/04/27 09:26:09;;;;;;;0.90;0.90;;;19.50;81.10;;;;;;4171544;28;20059;-59
2023/04/27 09:28:31;;;;;;;0.80;0.80;;;19.30;82.90;;;;;;4171009;28;20243;-59
2023/04/27 09:30:53;;;;;;;0.90;0.90;;;19.10;82.90;;;;;;4172206;28;20244;-58
2023/04/27 09:33:13;;;;;;;0.90;0.90;;;19.30;82.00;;;;;;4172999;28;20084;-58
2023/04/27 09:35:33;;;;;;;1.40;0.95;;;19.30;81.20;;;;;;4171906;28;20052;-59
2023/04/27 09:37:54;;;;;;;2.65;1.27;;;19.80;85.10;;;;;;4172943;28;20271;-59
2023/04/27 09:40:15;;;;;;;1.02;0.80;;;20.20;83.50;;;;;;4172844;28;20043;-59
2023/04/27 09:42:35;;;;;;;1.75;0.80;;;19.80;81.50;;;;;;4172512;28;20052;-60
2023/04/27 09:44:55;;;;;;;4.07;1.48;;;20.00;81.80;;;;;;4171462;28;20052;-59
2023/04/27 09:47:15;;;;;;;0.90;0.90;;;20.10;79.50;;;;;;4172608;28;20048;-59
2023/04/27 09:49:35;;;;;;;1.60;0.80;;;19.90;80.60;;;;;;4171043;28;20084;-59
2023/04/27 09:51:57;;;;;;;2.08;0.80;;;19.70;78.30;;;;;;4172055;28;20055;-59
2023/04/27 09:54:17;;;;;;;0.80;0.80;;;20.00;86.10;;;;;;4171158;28;20063;-59
2023/04/27 09:56:58;;;;;;;0.73;0.73;;;19.90;81.90;;;;;;4172731;28;20362;-59
2023/04/27 09:59:37;;;;;;;0.80;0.80;;;19.70;78.70;;;;;;4172141;28;20113;-60
2023/04/27 10:02:01;;;;;;;0.77;0.77;;;20.20;81.20;;;;;;4172643;28;20087;-59
2023/04/27 10:04:50;;;;;;;0.80;0.80;;;20.10;80.90;;;;;;4172398;28;20072;-59
2023/04/27 10:07:17;;;;;;;0.80;0.80;;;20.10;80.90;;;;;;4171818;28;20406;-59
2023/04/27 10:09:40;;;;;;;1.75;0.80;;;20.40;80.90;;;;;;4172073;28;20122;-60
2023/04/27 10:12:19;;;;;;;0.90;0.80;;;20.50;77.40;;;;;;4172337;28;20106;-59
2023/04/27 10:14:52;;;;;;;0.98;0.80;;;20.40;80.30;;;;;;4171606;28;20104;-59
2023/04/27 10:17:12;;;;;;;0.70;0.70;;;20.10;79.90;;;;;;4171998;28;20040;-60
2023/04/27 10:19:32;;;;;;;1.45;0.80;;;20.30;78.30;;;;;;4171215;28;20275;-59
2023/04/27 10:22:07;;;;;;;0.82;0.70;;;20.00;78.80;;;;;;4172477;28;20363;-60
2023/04/27 10:24:35;;;;;;;1.60;0.70;;;20.30;80.10;;;;;;4170528;28;20040;-60
2023/04/27 10:27:00;;;;;;;0.73;0.73;;;20.40;78.00;;;;;;4171368;28;20049;-59
2023/04/27 10:29:20;;;;;;;1.65;0.80;;;20.20;78.00;;;;;;4172253;28;20064;-59
2023/04/27 10:31:47;;;;;;;1.05;0.80;;;20.10;76.00;;;;;;4172299;28;20079;-59
2023/04/27 10:34:15;;;;;;;0.80;0.80;;;20.10;76.90;;;;;;4171730;28;20075;-59
2023/04/27 10:36:40;;;;;;;0.80;0.80;;;20.00;76.90;;;;;;4171880;28;20064;-59
2023/04/27 10:38:59;;;;;;;0.90;0.90;;;20.20;77.70;;;;;;4172075;28;20048;-59
2023/04/27 10:41:19;;;;;;;1.40;0.90;;;20.30;76.90;;;;;;4172779;28;20056;-59
2023/04/27 10:43:39;;;;;;;2.78;1.00;;;20.30;78.00;;;;;;4174126;28;20263;-59
2023/04/27 10:46:13;;;;;;;1.98;1.63;;;20.60;78.30;;;;;;4174392;28;20087;-59
2023/04/27 10:48:33;;;;;;;0.80;0.80;;;20.60;77.70;;;;;;4174774;28;20041;-59
2023/04/27 10:50:56;;;;;;;1.08;0.90;;;20.80;77.50;;;;;;4174555;28;20051;-59
2023/04/27 10:53:16;;;;;;;1.02;0.93;;;20.90;78.60;;;;;;4159826;28;20069;-60
2023/04/27 10:55:36;;;;;;;1.10;0.85;;;20.30;73.00;;;;;;4174608;28;20068;-59
2023/04/27 10:57:57;;;;;;;0.95;0.82;;;20.20;76.20;;;;;;4174573;28;20048;-60
2023/04/27 11:00:29;;;;;;;1.08;0.80;;;20.40;78.50;;;;;;4174795;28;20056;-59
2023/04/27 11:02:49;;;;;;;1.00;0.90;;;20.80;79.50;;;;;;4173970;28;20387;-59
2023/04/27 11:05:22;;;;;;;0.80;0.80;;;20.60;77.10;;;;;;4174243;28;20075;-59
2023/04/27 11:07:41;;;;;;;0.80;0.80;;;20.50;74.50;;;;;;4174661;28;20047;-59
2023/04/27 11:10:02;;;;;;;0.93;0.93;;;20.70;78.30;;;;;;4173669;28;20096;-59
2023/04/27 11:12:23;;;;;;;0.80;0.80;;;20.60;79.20;;;;;;4173660;28;20052;-59
2023/04/27 11:14:42;;;;;;;0.77;0.77;;;20.40;75.80;;;;;;4174474;28;20052;-59
2023/04/27 11:17:06;;;;;;;1.95;0.73;;;20.60;75.70;;;;;;4174199;28;20087;-58
2023/04/27 11:19:26;;;;;;;0.90;0.90;;;20.90;79.00;;;;;;4173651;28;20052;-59
2023/04/27 11:21:46;;;;;;;1.75;0.90;;;20.70;74.50;;;;;;4173642;28;20359;-59
2023/04/27 11:24:07;;;;;;;0.80;0.70;;;21.10;80.30;;;;;;4173497;28;20241;-59
2023/04/27 11:26:27;;;;;;;2.60;0.70;;;20.60;75.40;;;;;;4174085;28;20056;-59
2023/04/27 11:29:04;;;;;;;0.80;0.80;;;20.90;75.90;;;;;;4173352;28;20095;-60
2023/04/27 11:31:25;;;;;;;0.88;0.80;;;20.60;76.50;;;;;;4174075;28;20048;-59
2023/04/27 11:33:49;;;;;;;1.55;0.80;;;20.70;78.00;;;;;;4173095;28;20117;-59
2023/04/27 11:36:17;;;;;;;0.73;0.73;;;21.20;75.00;;;;;;4174435;28;20111;-59
2023/04/27 11:38:37;;;;;;;0.80;0.80;;;21.30;75.90;;;;;;4173559;28;20044;-59
2023/04/27 11:41:03;;;;;;;0.75;0.75;;;21.30;74.90;;;;;;4173291;28;20052;-59
2023/04/27 11:43:25;;;;;;;0.80;0.80;;;21.20;74.90;;;;;;4173565;28;20248;-61
2023/04/27 11:45:45;;;;;;;0.70;0.70;;;21.20;76.00;;;;;;4173850;28;20375;-61
2023/04/27 11:48:06;;;;;;;0.73;0.73;;;22.00;76.50;;;;;;4173732;28;20099;-61
2023/04/27 11:50:26;;;;;;;0.80;0.80;;;21.60;73.20;;;;;;4173672;28;20232;-61
2023/04/27 11:52:48;;;;;;;0.73;0.73;;;21.50;75.10;;;;;;4173403;28;20053;-61
2023/04/27 11:55:14;;;;;;;0.82;0.70;;;21.50;72.90;;;;;;4174215;28;20057;-61
2023/04/27 11:57:34;;;;;;;0.70;0.70;;;21.40;74.00;;;;;;4173282;28;20140;-61
2023/04/27 11:59:57;;;;;;;0.70;0.70;;;21.60;71.30;;;;;;4174037;28;20079;-61
2023/04/27 12:02:18;;;;;;;0.70;0.70;;;21.60;72.10;;;;;;4173190;28;20051;-61
2023/04/27 12:04:38;;;;;;;0.70;0.70;;;21.30;70.90;;;;;;4174323;28;20071;-61
2023/04/27 12:07:00;;;;;;;1.27;0.80;;;21.30;71.90;;;;;;4173077;28;20080;-61
2023/04/27 12:09:21;;;;;;;0.70;0.70;;;21.30;73.90;;;;;;4174068;28;20044;-61
2023/04/27 12:11:41;;;;;;;0.70;0.70;;;21.20;71.50;;;;;;4173658;28;20416;-61
2023/04/27 12:14:01;;;;;;;0.82;0.82;;;21.40;73.90;;;;;;4174027;28;20064;-61
2023/04/27 12:16:21;;;;;;;0.70;0.70;;;21.40;70.70;;;;;;4172911;28;20048;-61
2023/04/27 12:18:41;;;;;;;0.70;0.70;;;21.70;74.60;;;;;;4173691;28;20128;-61
2023/04/27 12:21:03;;;;;;;0.60;0.60;;;21.80;72.00;;;;;;4172357;28;20281;-61
2023/04/27 12:23:23;;;;;;;0.90;0.70;;;21.60;69.80;;;;;;4173770;28;20109;-60
2023/04/27 12:25:43;;;;;;;0.80;0.80;;;21.60;72.30;;;;;;4173745;28;20044;-61
2023/04/27 12:28:03;;;;;;;0.70;0.70;;;21.60;73.60;;;;;;4172603;28;20366;-61
2023/04/27 12:30:23;;;;;;;0.95;0.95;;;21.50;72.70;;;;;;4171299;28;20071;-60
2023/04/27 12:32:43;;;;;;;0.75;0.70;;;21.50;73.00;;;;;;4173681;28;20076;-61
2023/04/27 12:35:03;;;;;;;1.40;0.70;;;21.50;72.40;;;;;;4173666;28;20044;-61
2023/04/27 12:37:23;;;;;;;1.33;0.88;;;21.50;70.30;;;;;;4173894;28;20056;-60
2023/04/27 12:39:46;;;;;;;;;;;21.50;70.80;;;;;;4171465;28;20068;-61
2023/04/27 12:42:06;;;;;;;0.88;0.88;;;21.50;70.70;;;;;;4173613;28;19924;-61
2023/04/27 12:44:26;;;;;;;0.70;0.70;;;21.70;72.30;;;;;;4173406;28;20123;-61
2023/04/27 12:46:47;;;;;;;0.70;0.70;;;21.70;75.80;;;;;;4173371;28;20048;-62